Time;durP1;ratioP1;P1;durP2;ratioP2;P2;SDS_P1;SDS_P2;PMS_P1;PMS_P2;Temp;Humidity;BMP_temperature;BMP_pressure;BME280_temperature;BME280_humidity;BME280_pressure;Samples;Min_cycle;Max_cycle;Signal;HPM_P1;HPM_P2
2022/09/16 00:01:33;;;;;;;6.70;5.53;;;;;;;17.45;88.35;97719.59;1698009;83;21017;-72
2022/09/16 00:03:59;;;;;;;6.30;5.70;;;;;;;17.38;88.26;97717.66;1700853;83;20994;-72
2022/09/16 00:06:28;;;;;;;5.20;4.80;;;;;;;17.33;88.22;97718.97;1698060;83;20950;-72
2022/09/16 00:08:59;;;;;;;5.58;5.05;;;;;;;17.32;88.29;97729.42;1698063;83;21157;-72
2022/09/16 00:11:26;;;;;;;5.45;5.05;;;;;;;17.29;88.26;97725.38;1697951;83;20903;-72
2022/09/16 00:13:53;;;;;;;5.92;5.42;;;;;;;17.27;88.27;97724.83;1702531;83;20958;-72
2022/09/16 00:16:23;;;;;;;5.72;5.33;;;;;;;17.22;88.17;97715.37;1722405;83;21002;-72
2022/09/16 00:18:54;;;;;;;6.20;5.60;;;;;;;17.17;88.03;97722.86;1716980;83;21495;-72
2022/09/16 00:21:21;;;;;;;5.95;5.45;;;;;;;17.11;88.07;97719.84;1700790;83;21154;-72
2022/09/16 00:23:47;;;;;;;5.95;5.53;;;;;;;17.09;88.20;97722.50;1702693;83;21138;-72
2022/09/16 00:26:14;;;;;;;6.35;5.83;;;;;;;17.05;88.32;97735.62;1705828;83;20919;-72
2022/09/16 00:28:41;;;;;;;7.17;6.50;;;;;;;17.05;88.52;97746.92;1725856;83;21014;-72
2022/09/16 00:31:07;;;;;;;7.28;6.60;;;;;;;17.06;88.60;97753.37;1700816;83;20974;-72
2022/09/16 00:33:34;;;;;;;6.15;5.65;;;;;;;17.06;88.62;97748.52;1701971;83;21153;-72
2022/09/16 00:36:16;;;;;;;6.22;5.62;;;;;;;17.04;88.74;97752.82;1718618;83;20974;-72
2022/09/16 00:38:43;;;;;;;6.92;6.42;;;;;;;17.03;88.91;97753.05;1700814;83;20886;-72
2022/09/16 00:41:14;;;;;;;7.10;6.60;;;;;;;16.98;89.12;97750.31;1700783;83;21576;-71
2022/09/16 00:43:53;;;;;;;6.60;6.00;;;;;;;16.95;89.31;97743.58;1702580;83;20958;-72
2022/09/16 00:46:37;;;;;;;6.45;5.85;;;;;;;16.97;89.39;97739.31;1700761;83;21176;-71
2022/09/16 00:49:14;;;;;;;6.80;6.10;;;;;;;16.97;89.41;97741.44;1717821;83;21610;-71
2022/09/16 00:51:42;;;;;;;5.90;5.42;;;;;;;16.96;89.44;97749.23;1728748;83;20990;-71
2022/09/16 00:54:08;;;;;;;6.30;5.83;;;;;;;16.96;89.60;97755.14;1689429;83;21558;-71
2022/09/16 00:56:38;;;;;;;6.25;5.75;;;;;;;16.93;89.73;97756.45;1700775;83;21025;-72
2022/09/16 00:59:14;;;;;;;6.30;5.80;;;;;;;16.92;89.72;97760.75;1700735;83;21144;-72
2022/09/16 01:01:45;;;;;;;6.78;6.17;;;;;;;16.86;89.87;97757.19;1700030;83;21515;-72
2022/09/16 01:04:20;;;;;;;7.17;6.60;;;;;;;16.85;89.98;97762.27;1702809;83;21499;-72
2022/09/16 01:06:47;;;;;;;6.40;5.90;;;;;;;16.85;90.05;97765.48;1714311;83;20911;-72
2022/09/16 01:09:14;;;;;;;6.92;6.33;;;;;;;16.85;90.11;97757.42;1680615;83;21093;-72
2022/09/16 01:11:40;;;;;;;6.22;5.72;;;;;;;16.85;90.17;97756.89;1722591;83;21786;-72
2022/09/16 01:17:00;;;;;;;6.45;5.95;;;;;;;16.87;90.21;97753.98;1702645;83;21512;-72
2022/09/16 01:19:43;;;;;;;7.40;6.80;;;;;;;16.84;90.27;97757.16;1705985;83;20935;-72
2022/09/16 01:22:22;;;;;;;7.37;6.67;;;;;;;16.87;90.23;97753.42;1701096;83;20993;-72
2022/09/16 01:25:09;;;;;;;7.72;7.03;;;;;;;16.86;90.23;97734.36;1699053;83;21256;-72
2022/09/16 01:27:50;;;;;;;7.05;6.40;;;;;;;16.84;90.22;97743.17;1705044;83;20962;-72
2022/09/16 01:31:06;;;;;;;7.22;6.53;;;;;;;16.82;90.31;97751.20;1701258;83;20914;-72
2022/09/16 01:34:00;;;;;;;7.10;6.50;;;;;;;16.79;90.30;97749.05;1711031;83;21030;-72
2022/09/16 01:36:38;;;;;;;6.83;6.28;;;;;;;16.76;90.29;97744.99;1715976;83;21026;-72
2022/09/16 01:39:11;;;;;;;7.10;6.50;;;;;;;16.73;90.39;97754.07;1715696;83;21287;-72
2022/09/16 01:42:16;;;;;;;7.12;6.42;;;;;;;16.72;90.45;97767.20;1725092;83;20918;-72
2022/09/16 01:45:20;;;;;;;7.05;6.50;;;;;;;16.71;90.50;97762.39;1701068;83;21525;-72
2022/09/16 01:48:12;;;;;;;6.80;6.20;;;;;;;16.68;90.51;97761.54;1716994;83;20911;-71
2022/09/16 01:50:47;;;;;;;6.50;5.85;;;;;;;16.65;90.56;97764.20;1728177;83;21552;-72
2022/09/16 01:53:57;;;;;;;5.83;5.33;;;;;;;16.63;90.57;97766.85;1701124;83;21037;-71
2022/09/16 01:56:47;;;;;;;5.22;4.75;;;;;;;16.61;90.54;97768.95;1701358;83;20902;-71
2022/09/16 01:59:31;;;;;;;5.40;4.90;;;;;;;16.57;90.50;97767.84;1656994;85;20906;-72
2022/09/16 02:02:31;;;;;;;4.65;4.22;;;;;;;16.55;90.61;97759.23;1641059;85;20971;-71
2022/09/16 02:04:59;;;;;;;4.72;4.30;;;;;;;16.55;90.70;97765.94;1687786;82;20986;-72
2022/09/16 02:07:30;;;;;;;5.15;4.65;;;;;;;16.58;90.65;97768.13;1708151;83;21916;-72
2022/09/16 02:10:07;;;;;;;3.95;3.65;;;;;;;16.58;90.55;97768.92;1701142;83;20875;-71
2022/09/16 02:12:37;;;;;;;4.37;4.00;;;;;;;16.60;90.46;97772.19;1703860;83;21049;-72
2022/09/16 02:15:08;;;;;;;4.20;3.80;;;;;;;16.58;90.31;97773.50;1701035;83;20982;-72
2022/09/16 02:17:39;;;;;;;5.30;3.75;;;;;;;16.58;90.21;97777.53;1715037;83;21010;-72
2022/09/16 02:20:13;;;;;;;3.85;3.50;;;;;;;16.57;90.15;97783.95;1721865;83;21889;-72
2022/09/16 02:22:44;;;;;;;3.60;3.30;;;;;;;16.56;90.08;97779.62;1728048;83;20990;-72
2022/09/16 02:25:11;;;;;;;3.62;3.33;;;;;;;16.55;89.96;97776.68;1727155;83;20954;-72
2022/09/16 02:27:39;;;;;;;3.37;3.08;;;;;;;16.54;89.79;97771.02;1684803;83;21282;-72
2022/09/16 02:30:09;;;;;;;4.25;3.47;;;;;;;16.55;89.68;97773.47;1712838;83;20958;-72
2022/09/16 02:32:46;;;;;;;3.72;3.42;;;;;;;16.52;89.44;97779.83;1714766;83;21097;-72
2022/09/16 02:35:16;;;;;;;4.75;3.42;;;;;;;16.49;89.38;97788.37;1705192;83;20899;-72
2022/09/16 02:37:50;;;;;;;6.45;4.17;;;;;;;16.46;89.14;97798.25;1716710;83;20986;-72
2022/09/16 02:40:21;;;;;;;5.20;4.80;;;;;;;16.39;88.90;97797.63;1724966;83;20915;-72
2022/09/16 02:42:48;;;;;;;6.58;5.47;;;;;;;16.30;88.71;97799.09;1723056;83;20868;-72
2022/09/16 02:45:15;;;;;;;5.00;4.60;;;;;;;16.22;88.83;97803.02;1727009;83;21139;-72
2022/09/16 02:48:05;;;;;;;5.05;4.60;;;;;;;16.17;89.04;97800.78;1725073;83;20938;-72
2022/09/16 02:50:45;;;;;;;4.50;4.15;;;;;;;16.16;89.20;97800.52;1701443;83;20955;-72
2022/09/16 02:53:25;;;;;;;4.20;3.90;;;;;;;16.13;89.33;97807.19;1700976;83;21009;-72
2022/09/16 02:56:00;;;;;;;3.75;3.45;;;;;;;16.15;89.37;97809.61;1700865;83;21010;-72
2022/09/16 02:58:26;;;;;;;4.65;3.35;;;;;;;16.14;89.45;97805.33;1712142;83;21271;-72
2022/09/16 03:00:53;;;;;;;3.58;3.33;;;;;;;16.12;89.46;97801.53;1717415;83;21549;-72
2022/09/16 03:03:20;;;;;;;3.90;3.60;;;;;;;16.12;89.46;97802.05;1702637;83;21006;-72
2022/09/16 03:06:16;;;;;;;5.65;3.70;;;;;;;16.12;89.40;97804.20;1724725;83;20982;-72
2022/09/16 03:08:43;;;;;;;3.87;3.45;;;;;;;16.09;89.48;97804.70;1671013;83;21003;-72
2022/09/16 03:11:34;;;;;;;4.92;3.85;;;;;;;16.12;89.46;97808.75;1726874;83;21937;-72
2022/09/16 03:14:35;;;;;;;4.72;3.30;;;;;;;16.09;89.51;97807.38;1711835;83;21503;-72
2022/09/16 03:17:52;;;;;;;4.35;3.95;;;;;;;16.08;89.46;97807.11;1710875;83;20883;-72
2022/09/16 03:20:59;;;;;;;3.83;3.35;;;;;;;16.05;89.43;97817.80;1701570;83;20977;-72
2022/09/16 03:23:57;;;;;;;4.20;3.90;;;;;;;16.02;89.59;97815.61;1701214;83;20894;-72
2022/09/16 03:26:47;;;;;;;4.10;3.80;;;;;;;16.04;89.65;97814.83;1703020;83;21201;-72
2022/09/16 03:29:33;;;;;;;5.92;4.10;;;;;;;16.03;89.74;97817.77;1704818;83;20984;-72
2022/09/16 03:32:16;;;;;;;4.12;3.83;;;;;;;16.04;89.81;97820.71;1720812;83;21484;-72
2022/09/16 03:34:48;;;;;;;5.62;5.15;;;;;;;16.04;89.76;97825.55;1709889;83;21485;-71
2022/09/16 03:37:17;;;;;;;4.92;4.33;;;;;;;16.06;89.79;97828.80;1712304;83;21420;-72
2022/09/16 03:39:53;;;;;;;6.53;4.40;;;;;;;16.08;89.82;97826.41;1708826;83;21814;-72
2022/09/16 03:42:20;;;;;;;4.83;4.37;;;;;;;16.13;89.79;97825.15;1701058;83;20951;-72
2022/09/16 03:44:46;;;;;;;4.40;4.10;;;;;;;16.11;89.64;97825.92;1700989;83;21026;-72
2022/09/16 03:47:13;;;;;;;5.40;4.17;;;;;;;16.08;89.59;97825.34;1704151;83;20966;-72
2022/09/16 03:49:40;;;;;;;4.53;4.05;;;;;;;16.05;89.56;97831.73;1704121;83;20954;-72
2022/09/16 03:52:07;;;;;;;5.30;4.08;;;;;;;16.03;89.45;97836.54;1720905;83;21895;-72
2022/09/16 03:54:35;;;;;;;5.12;4.47;;;;;;;16.01;89.45;97832.74;1712885;83;20940;-72
2022/09/16 03:57:01;;;;;;;4.87;4.28;;;;;;;16.00;89.38;97837.84;1714312;83;21400;-72
2022/09/16 03:59:28;;;;;;;4.67;4.28;;;;;;;15.98;89.49;97838.59;1712148;83;21021;-72
2022/09/16 04:01:55;;;;;;;5.28;4.12;;;;;;;15.98;89.53;97839.93;1715272;83;20860;-72
2022/09/16 04:04:21;;;;;;;4.00;3.70;;;;;;;15.96;89.36;97840.71;1711330;83;21751;-72
2022/09/16 04:06:48;;;;;;;4.95;4.50;;;;;;;15.88;89.28;97845.13;1702818;83;20993;-72
2022/09/16 04:09:15;;;;;;;6.05;4.95;;;;;;;15.82;89.25;97850.67;1724735;83;21061;-72
2022/09/16 04:11:42;;;;;;;5.08;4.65;;;;;;;15.74;89.15;97853.74;1722786;83;21007;-72
2022/09/16 04:14:09;;;;;;;4.75;4.35;;;;;;;15.68;89.31;97850.68;1701008;83;20962;-72
2022/09/16 04:16:38;;;;;;;6.22;5.10;;;;;;;15.62;89.47;97852.45;1705898;83;20972;-71
2022/09/16 04:19:04;;;;;;;7.75;5.00;;;;;;;15.59;89.61;97855.61;1716729;83;21467;-72
2022/09/16 04:21:31;;;;;;;6.58;5.97;;;;;;;15.60;89.86;97856.44;1702640;83;20954;-72
2022/09/16 04:23:57;;;;;;;7.90;7.20;;;;;;;15.61;90.13;97850.84;1710595;83;20964;-72
2022/09/16 04:26:24;;;;;;;7.90;7.12;;;;;;;15.66;90.36;97850.94;1715855;83;21423;-72
2022/09/16 04:28:53;;;;;;;7.60;7.00;;;;;;;15.69;90.34;97845.09;1714441;83;21087;-72
2022/09/16 04:31:20;;;;;;;7.17;6.47;;;;;;;15.70;90.31;97853.41;1715650;83;21507;-72
2022/09/16 04:33:46;;;;;;;8.73;8.03;;;;;;;15.73;90.35;97858.81;1703065;83;20946;-72
2022/09/16 04:36:16;;;;;;;7.30;6.70;;;;;;;15.80;90.52;97866.98;1703367;83;20895;-72
2022/09/16 04:38:44;;;;;;;6.70;6.10;;;;;;;15.87;90.54;97869.52;1711525;83;21504;-71
2022/09/16 04:41:17;;;;;;;6.28;5.55;;;;;;;15.92;90.54;97873.11;1706177;83;21145;-71
2022/09/16 04:43:43;;;;;;;6.37;5.87;;;;;;;15.97;90.54;97872.38;1701947;83;20898;-72
2022/09/16 04:46:09;;;;;;;6.33;5.80;;;;;;;16.03;90.46;97872.20;1700942;83;21530;-72
2022/09/16 04:48:37;;;;;;;7.47;5.90;;;;;;;16.08;90.39;97859.94;1707922;83;21049;-71
2022/09/16 04:51:08;;;;;;;6.08;5.58;;;;;;;16.22;90.61;97866.59;1714322;83;20977;-72
2022/09/16 04:53:36;;;;;;;11.50;5.45;;;;;;;16.51;91.12;97874.81;1715209;83;21096;-72
2022/09/16 04:56:09;;;;;;;8.13;5.55;;;;;;;17.04;91.85;97872.89;1705682;83;21558;-72
2022/09/16 04:58:36;;;;;;;5.67;5.28;;;;;;;17.64;91.35;97870.11;1719796;83;21328;-72
2022/09/16 05:01:14;;;;;;;7.85;5.47;;;;;;;18.21;89.92;97874.37;1715418;83;21483;-72
2022/09/16 05:03:42;;;;;;;5.22;4.72;;;;;;;18.52;88.12;97872.74;1706137;83;20942;-71
2022/09/16 05:06:15;;;;;;;7.20;6.50;;;;;;;18.70;87.07;97871.78;1724607;83;21029;-72
2022/09/16 05:08:42;;;;;;;7.28;6.03;;;;;;;19.05;86.58;97868.47;1723481;83;21582;-74
2022/09/16 05:11:11;;;;;;;6.42;5.75;;;;;;;19.51;84.59;97870.27;1707313;83;20981;-73
2022/09/16 05:13:38;;;;;;;5.70;5.20;;;;;;;19.70;83.23;97866.55;1710124;83;21591;-70
2022/09/16 05:16:12;;;;;;;4.87;4.47;;;;;;;19.79;81.48;97871.67;1706927;83;20969;-71
2022/09/16 05:18:40;;;;;;;6.58;4.75;;;;;;;19.76;80.53;97871.41;1706855;82;21672;-73
2022/09/16 05:21:11;;;;;;;5.53;5.03;;;;;;;19.94;79.54;97871.71;1727230;82;20993;-72
2022/09/16 05:23:37;;;;;;;5.62;4.67;;;;;;;20.54;78.07;97862.81;1739795;81;21010;-73
2022/09/16 05:26:09;;;;;;;6.28;5.28;;;;;;;20.96;75.46;97868.38;1719784;82;21041;-73
2022/09/16 05:28:35;;;;;;;4.75;4.37;;;;;;;21.06;74.04;97866.98;1713686;82;20966;-73
2022/09/16 05:31:18;;;;;;;7.37;5.37;;;;;;;21.04;72.09;97871.88;1707529;82;21165;-73
2022/09/16 05:33:48;;;;;;;7.62;5.28;;;;;;;20.92;71.20;97871.62;1717094;82;21112;-73
2022/09/16 05:36:16;;;;;;;7.25;5.33;;;;;;;20.94;70.31;97873.51;1703858;82;20954;-73
2022/09/16 05:38:43;;;;;;;5.58;5.05;;;;;;;20.89;69.52;97868.66;1718756;82;21001;-73
2022/09/16 05:41:09;;;;;;;6.37;5.78;;;;;;;20.92;69.11;97876.22;1718721;82;21029;-72
2022/09/16 05:43:36;;;;;;;6.78;6.17;;;;;;;21.27;68.65;97876.14;1730127;82;21304;-73
2022/09/16 05:46:04;;;;;;;7.37;5.87;;;;;;;21.61;67.73;97879.48;1709591;82;20936;-73
2022/09/16 05:48:30;;;;;;;6.33;5.72;;;;;;;21.89;66.68;97874.19;1711056;82;21084;-74
2022/09/16 05:51:03;;;;;;;6.22;5.25;;;;;;;22.24;65.97;97875.02;1712728;82;21547;-74
2022/09/16 05:53:31;;;;;;;6.62;5.15;;;;;;;22.77;64.43;97876.70;1716095;82;21062;-74
2022/09/16 05:56:07;;;;;;;6.15;5.55;;;;;;;22.77;62.88;97882.12;1712398;82;21878;-72
2022/09/16 05:58:35;;;;;;;6.22;5.62;;;;;;;22.61;62.55;97883.33;1709716;82;21021;-74
2022/09/16 06:01:05;;;;;;;9.45;5.62;;;;;;;22.38;62.58;97888.97;1713462;82;21077;-74
2022/09/16 06:03:33;;;;;;;5.95;5.45;;;;;;;22.36;62.60;97884.92;1708954;82;21591;-74
2022/09/16 06:06:01;;;;;;;6.12;5.47;;;;;;;22.26;61.99;97885.83;1727731;82;20946;-74
2022/09/16 06:08:29;;;;;;;5.53;5.03;;;;;;;21.98;62.33;97895.50;1708633;82;21259;-74
2022/09/16 06:10:55;;;;;;;8.10;5.85;;;;;;;21.72;63.20;97896.71;1714597;82;21412;-74
2022/09/16 06:13:21;;;;;;;6.60;5.95;;;;;;;21.52;63.10;97892.77;1706921;82;21084;-73
2022/09/16 06:15:53;;;;;;;7.28;5.67;;;;;;;21.32;63.85;97890.98;1721042;82;20970;-72
2022/09/16 06:18:21;;;;;;;6.67;5.97;;;;;;;21.28;64.62;97891.26;1724275;82;21050;-69
2022/09/16 06:20:48;;;;;;;7.70;6.25;;;;;;;21.32;64.81;97892.88;1708454;83;21241;-75
2022/09/16 06:23:15;;;;;;;7.00;5.55;;;;;;;21.40;64.16;97893.66;1703387;83;20898;-74
2022/09/16 06:25:41;;;;;;;5.90;5.30;;;;;;;21.33;64.41;97896.64;1714727;83;20976;-71
2022/09/16 06:28:10;;;;;;;6.70;5.90;;;;;;;21.26;64.70;97896.67;1707641;83;21125;-72
2022/09/16 06:30:37;;;;;;;6.75;6.20;;;;;;;21.17;64.52;97901.05;1707856;83;20974;-70
2022/09/16 06:33:04;;;;;;;6.65;6.05;;;;;;;21.08;65.09;97897.28;1708320;83;21169;-72
2022/09/16 06:35:33;;;;;;;6.42;5.92;;;;;;;20.99;64.79;97894.87;1704502;83;20954;-72
2022/09/16 06:38:01;;;;;;;7.35;6.58;;;;;;;20.88;64.71;97900.84;1712348;83;21089;-69
2022/09/16 06:40:27;;;;;;;9.03;5.78;;;;;;;20.89;65.14;97897.84;1712871;83;20985;-76
2022/09/16 06:42:54;;;;;;;7.08;5.80;;;;;;;21.06;65.44;97898.08;1702910;83;20899;-74
2022/09/16 06:45:21;;;;;;;6.10;5.60;;;;;;;21.14;65.11;97898.36;1714132;83;21573;-73
2022/09/16 06:47:48;;;;;;;7.12;6.42;;;;;;;21.13;64.82;97906.73;1717546;83;20962;-75
2022/09/16 06:50:15;;;;;;;6.90;5.92;;;;;;;21.13;64.78;97906.73;1714425;83;21065;-76
2022/09/16 06:52:41;;;;;;;7.25;5.92;;;;;;;21.19;64.96;97911.05;1706821;83;20950;-75
2022/09/16 06:55:08;;;;;;;7.03;5.75;;;;;;;21.32;64.81;97916.68;1709223;83;21583;-75
2022/09/16 06:57:34;;;;;;;5.78;5.25;;;;;;;21.52;64.67;97918.48;1710005;83;21182;-76
2022/09/16 07:00:03;;;;;;;6.42;5.60;;;;;;;21.73;64.55;97933.52;1702490;83;20986;-75
2022/09/16 07:02:30;;;;;;;5.97;5.35;;;;;;;21.87;63.95;97932.41;1702851;83;20991;-75
2022/09/16 07:05:00;;;;;;;5.65;5.22;;;;;;;21.91;63.58;97929.39;1707043;83;21432;-75
2022/09/16 07:07:30;;;;;;;6.30;5.65;;;;;;;21.93;62.69;97933.44;1710879;83;21010;-72
2022/09/16 07:09:57;;;;;;;8.53;6.28;;;;;;;21.89;62.49;97928.86;1710385;83;21481;-75
2022/09/16 07:12:24;;;;;;;5.87;5.37;;;;;;;21.87;61.81;97925.64;1700772;83;20903;-73
2022/09/16 07:14:51;;;;;;;5.85;5.35;;;;;;;21.79;61.86;97916.18;1700916;83;20966;-77
2022/09/16 07:17:18;;;;;;;6.05;5.37;;;;;;;21.97;61.90;97924.22;1725852;83;20925;-82
2022/09/16 07:19:45;;;;;;;6.40;5.30;;;;;;;22.34;60.60;97916.38;1701997;83;20907;-74
2022/09/16 07:22:11;;;;;;;8.28;5.20;;;;;;;22.52;59.92;97924.34;1685231;83;21861;-78
2022/09/16 07:24:38;;;;;;;8.63;5.00;;;;;;;22.61;59.30;97926.69;1703606;83;20954;-77
2022/09/16 07:27:04;;;;;;;6.97;4.85;;;;;;;22.83;58.16;97927.61;1697310;84;20907;-78
2022/09/16 07:29:31;;;;;;;6.45;4.72;;;;;;;23.10;57.71;97931.38;1690421;83;21520;-77
2022/09/16 07:31:59;;;;;;;6.65;4.50;;;;;;;23.10;57.71;97931.38;1690428;83;21362;-78
2022/09/16 07:34:26;;;;;;;5.25;4.75;;;;;;;23.57;56.44;97927.87;1717658;83;21072;-73
2022/09/16 07:36:53;;;;;;;6.72;5.08;;;;;;;24.24;55.22;97928.05;1687658;83;20926;-78
2022/09/16 07:39:20;;;;;;;7.37;5.42;;;;;;;25.35;53.76;97927.45;1671331;84;21079;-78
2022/09/16 07:41:47;;;;;;;6.78;4.78;;;;;;;26.61;50.98;97925.22;1700846;83;21493;-78
2022/09/16 07:44:18;;;;;;;7.15;4.35;;;;;;;27.97;48.10;97924.20;1683193;83;20917;-78
2022/09/16 07:46:45;;;;;;;4.62;4.10;;;;;;;29.49;44.13;97920.73;1700891;83;21191;-78
2022/09/16 07:49:13;;;;;;;5.62;4.20;;;;;;;30.80;40.66;97928.48;1706002;83;21004;-78
2022/09/16 07:51:40;;;;;;;5.37;4.10;;;;;;;31.62;37.45;97928.20;1702649;83;20981;-78
2022/09/16 07:54:09;;;;;;;5.00;3.67;;;;;;;31.46;37.81;97923.17;1720564;83;21485;-77
2022/09/16 07:56:37;;;;;;;6.60;4.35;;;;;;;31.30;37.30;97923.58;1702940;83;20899;-77
2022/09/16 07:59:06;;;;;;;3.77;3.45;;;;;;;31.19;36.36;97925.16;1700703;83;21236;-77
2022/09/16 08:01:33;;;;;;;5.95;3.95;;;;;;;30.82;35.87;97923.45;1709673;83;20982;-77
2022/09/16 08:04:00;;;;;;;5.75;3.77;;;;;;;30.43;36.25;97926.98;1712452;83;21070;-77
2022/09/16 08:06:29;;;;;;;5.62;5.15;;;;;;;30.12;36.93;97934.79;1704813;83;20996;-77
2022/09/16 08:08:58;;;;;;;4.15;3.75;;;;;;;29.71;37.05;97940.20;1715313;83;20897;-74
2022/09/16 08:11:27;;;;;;;7.97;4.10;;;;;;;29.35;37.17;97948.38;1722138;83;21909;-72
2022/09/16 08:13:54;;;;;;;4.75;4.05;;;;;;;29.21;37.42;97942.30;1720923;83;20910;-72
2022/09/16 08:16:21;;;;;;;4.75;3.85;;;;;;;29.35;37.65;97947.56;1706460;83;20912;-72
2022/09/16 08:18:50;;;;;;;3.77;3.37;;;;;;;29.18;37.64;97942.91;1713968;83;20970;-72
2022/09/16 08:21:20;;;;;;;5.03;4.28;;;;;;;28.97;38.28;97947.48;1725905;83;21057;-72
2022/09/16 08:23:48;;;;;;;4.62;3.52;;;;;;;28.61;37.91;97949.25;1716684;83;21248;-72
2022/09/16 08:26:15;;;;;;;5.85;3.40;;;;;;;27.96;38.79;97950.71;1700424;84;20899;-71
2022/09/16 08:28:43;;;;;;;7.78;3.77;;;;;;;27.51;39.76;97952.04;1711514;83;20956;-72
2022/09/16 08:31:10;;;;;;;3.87;3.47;;;;;;;27.25;40.20;97954.64;1700296;84;22296;-73
2022/09/16 08:33:39;;;;;;;4.15;3.22;;;;;;;27.15;40.66;97955.47;1700723;83;21085;-72
2022/09/16 08:36:19;;;;;;;5.42;4.00;;;;;;;27.11;41.14;97958.59;1700140;84;21211;-72
2022/09/16 08:38:47;;;;;;;5.47;3.62;;;;;;;27.02;41.08;97960.47;1700475;84;20942;-73
2022/09/16 08:41:40;;;;;;;4.20;3.45;;;;;;;26.64;42.05;97963.59;1726122;83;20945;-72
2022/09/16 08:44:39;;;;;;;7.35;3.65;;;;;;;26.68;42.16;97963.20;1729617;83;20915;-72
2022/09/16 08:48:01;;;;;;;4.40;3.72;;;;;;;27.03;41.46;97953.91;1728597;83;20955;-74
2022/09/16 08:50:35;;;;;;;3.90;3.35;;;;;;;27.66;40.60;97952.19;1688032;83;21328;-72
2022/09/16 08:53:05;;;;;;;3.70;3.10;;;;;;;28.15;39.06;97948.52;1728892;83;20986;-73
2022/09/16 08:55:39;;;;;;;5.80;3.45;;;;;;;28.34;39.10;97946.03;1718943;83;21590;-73
2022/09/16 08:58:15;;;;;;;5.10;3.10;;;;;;;28.90;38.11;97940.34;1673007;84;20998;-73
2022/09/16 09:00:43;;;;;;;4.35;3.12;;;;;;;29.48;37.03;97942.42;1704107;83;21080;-73
2022/09/16 09:03:38;;;;;;;5.05;3.37;;;;;;;30.24;36.03;97936.25;1717521;83;21135;-72
2022/09/16 09:06:26;;;;;;;2.77;2.55;;;;;;;31.45;34.04;97929.80;1713701;83;21070;-72
2022/09/16 09:09:07;;;;;;;3.40;2.60;;;;;;;33.57;31.17;97926.30;1709866;83;21070;-72
2022/09/16 09:11:56;;;;;;;7.25;2.90;;;;;;;35.23;28.54;97925.09;1708739;82;21452;-73
2022/09/16 09:14:52;;;;;;;3.50;2.08;;;;;;;36.00;27.10;97921.19;1705250;83;21083;-72
2022/09/16 09:17:30;;;;;;;8.58;3.00;;;;;;;35.82;26.56;97925.86;1709169;83;21227;-73
2022/09/16 09:20:23;;;;;;;4.05;2.47;;;;;;;35.73;26.84;97923.97;1715383;82;20969;-73
2022/09/16 09:23:33;;;;;;;5.22;2.47;;;;;;;36.86;25.13;97915.80;1710082;83;21540;-72
2022/09/16 09:26:24;;;;;;;3.00;2.40;;;;;;;37.86;24.18;97921.69;1705787;83;21068;-72
2022/09/16 09:29:08;;;;;;;3.00;1.65;;;;;;;38.95;22.68;97915.26;1710438;83;21017;-73
2022/09/16 09:32:18;;;;;;;2.25;1.60;;;;;;;39.47;21.78;97912.34;1710964;83;21523;-74
2022/09/16 09:35:23;;;;;;;7.30;2.15;;;;;;;39.19;21.05;97906.78;1707854;83;21054;-73
2022/09/16 09:38:28;;;;;;;5.53;2.27;;;;;;;39.17;21.31;97910.50;1710895;83;21195;-75
2022/09/16 09:41:05;;;;;;;3.58;2.10;;;;;;;38.65;21.45;97909.98;1712135;83;20919;-72
2022/09/16 09:43:50;;;;;;;3.47;1.60;;;;;;;37.73;21.81;97912.24;1667703;83;21011;-72
2022/09/16 09:46:34;;;;;;;2.05;1.60;;;;;;;37.55;22.01;97915.48;1710164;83;21689;-70
2022/09/16 09:49:37;;;;;;;3.17;2.00;;;;;;;37.96;21.70;97921.75;1705430;83;21006;-72
2022/09/16 09:52:21;;;;;;;2.08;1.67;;;;;;;37.91;21.17;97914.38;1709841;83;21016;-73
2022/09/16 09:54:49;;;;;;;2.95;1.55;;;;;;;37.95;20.85;97913.22;1707352;83;21070;-72
2022/09/16 09:57:39;;;;;;;5.62;1.50;;;;;;;37.96;20.91;97911.23;1704430;83;21017;-74
2022/09/16 10:00:17;;;;;;;3.02;1.45;;;;;;;37.64;20.55;97911.80;1709410;83;21163;-72
2022/09/16 10:02:44;;;;;;;3.02;1.60;;;;;;;36.67;21.09;97913.20;1702640;83;21017;-73
2022/09/16 10:05:27;;;;;;;2.42;1.40;;;;;;;35.75;22.48;97919.44;1705712;83;21520;-71
2022/09/16 10:07:57;;;;;;;3.22;1.62;;;;;;;35.02;23.13;97927.45;1706204;83;21011;-70
2022/09/16 10:10:26;;;;;;;3.65;1.50;;;;;;;34.56;23.39;97922.45;1705577;83;21027;-72
2022/09/16 10:12:53;;;;;;;2.75;1.60;;;;;;;33.78;24.41;97928.76;1710484;83;21187;-72
2022/09/16 10:15:28;;;;;;;4.28;2.00;;;;;;;33.51;24.90;97916.66;1706130;83;21000;-70
2022/09/16 10:17:58;;;;;;;1.30;1.05;;;;;;;33.80;24.68;97924.48;1710006;82;21501;-73
2022/09/16 10:20:30;;;;;;;2.15;1.32;;;;;;;34.26;23.86;97921.98;1704485;83;20983;-72
2022/09/16 10:23:05;;;;;;;2.65;1.20;;;;;;;35.05;23.74;97932.86;1703635;83;20971;-72
2022/09/16 10:25:32;;;;;;;1.32;1.22;;;;;;;35.90;22.11;97926.80;1704997;83;21257;-72
2022/09/16 10:28:19;;;;;;;2.58;1.77;;;;;;;36.66;21.29;97911.60;1705840;83;20979;-71
2022/09/16 10:30:51;;;;;;;2.22;1.27;;;;;;;37.40;20.81;97912.95;1705961;83;21018;-76
2022/09/16 10:33:32;;;;;;;1.72;1.30;;;;;;;37.71;20.45;97909.06;1709505;82;20970;-72
2022/09/16 10:36:07;;;;;;;1.42;1.22;;;;;;;37.81;20.75;97908.92;1706684;83;21070;-72
2022/09/16 10:38:43;;;;;;;2.25;1.10;;;;;;;38.00;20.02;97912.84;1695888;82;21163;-73
2022/09/16 10:41:26;;;;;;;2.25;1.42;;;;;;;37.87;19.55;97912.97;1706948;83;21011;-73
2022/09/16 10:43:59;;;;;;;3.92;1.30;;;;;;;37.54;19.85;97915.88;1703302;83;21010;-72
2022/09/16 10:46:25;;;;;;;3.50;1.67;;;;;;;36.30;20.53;97920.05;1706054;83;21068;-73
2022/09/16 10:48:53;;;;;;;2.77;1.30;;;;;;;35.24;22.06;97929.47;1705217;83;21076;-73
2022/09/16 10:51:26;;;;;;;3.85;1.60;;;;;;;34.55;22.75;97924.14;1706760;83;21148;-73
2022/09/16 10:53:58;;;;;;;2.45;1.47;;;;;;;33.52;24.17;97923.79;1708376;83;20946;-73
2022/09/16 10:56:30;;;;;;;7.12;1.47;;;;;;;33.03;24.65;97929.41;1705766;83;21051;-72
2022/09/16 10:59:05;;;;;;;4.05;1.70;;;;;;;33.09;24.74;97928.80;1705237;83;21600;-72
2022/09/16 11:01:55;;;;;;;1.50;1.40;;;;;;;33.53;24.45;97925.37;1705852;83;21067;-73
2022/09/16 11:04:40;;;;;;;1.20;1.10;;;;;;;34.01;23.92;97916.69;1705872;83;21176;-75
2022/09/16 11:07:33;;;;;;;2.17;1.20;;;;;;;34.37;23.31;97916.08;1705846;83;20954;-75
2022/09/16 11:10:25;;;;;;;6.97;1.57;;;;;;;34.27;23.49;97923.56;1690252;83;21081;-74
2022/09/16 11:13:14;;;;;;;4.00;1.35;;;;;;;33.18;24.34;97919.00;1712785;83;21023;-70
2022/09/16 11:16:14;;;;;;;2.80;1.40;;;;;;;32.06;24.91;97930.58;1710291;83;21496;-71
2022/09/16 11:19:08;;;;;;;2.72;1.75;;;;;;;31.21;26.53;97928.96;1702183;83;21129;-76
2022/09/16 11:22:07;;;;;;;3.92;1.60;;;;;;;30.53;27.77;97923.81;1703449;83;21557;-71
2022/09/16 11:25:16;;;;;;;2.62;1.65;;;;;;;29.84;28.27;97922.18;1707450;83;21466;-74
2022/09/16 11:28:03;;;;;;;2.58;1.40;;;;;;;29.13;29.43;97923.13;1712962;83;20950;-71
2022/09/16 11:30:32;;;;;;;2.00;1.17;;;;;;;28.35;30.42;97928.48;1699934;83;22118;-72
2022/09/16 11:33:26;;;;;;;2.72;1.42;;;;;;;27.74;31.22;97939.89;1705512;83;21250;-72
2022/09/16 11:36:18;;;;;;;3.17;1.80;;;;;;;27.05;31.68;97937.45;1705119;83;21523;-75
2022/09/16 11:39:33;;;;;;;2.80;1.25;;;;;;;26.36;32.37;97937.53;1705284;83;21040;-74
2022/09/16 11:42:14;;;;;;;3.72;1.32;;;;;;;25.70;33.72;97937.66;1704919;83;21001;-74
2022/09/16 11:44:58;;;;;;;2.30;1.47;;;;;;;25.10;34.72;97947.00;1699885;83;20966;-74
2022/09/16 11:47:42;;;;;;;3.58;1.90;;;;;;;24.56;35.50;97956.59;1662180;83;21249;-75
2022/09/16 11:50:53;;;;;;;4.03;1.80;;;;;;;24.15;36.99;97956.16;1710641;83;20901;-74
2022/09/16 11:53:45;;;;;;;3.30;1.40;;;;;;;23.73;37.71;97940.69;1709538;83;21146;-72
2022/09/16 11:56:29;;;;;;;5.08;2.30;;;;;;;23.45;38.85;97941.60;1707215;83;21024;-75
2022/09/16 11:59:06;;;;;;;1.87;1.30;;;;;;;23.40;39.96;97944.38;1705977;83;20916;-75
2022/09/16 12:01:50;;;;;;;3.42;1.70;;;;;;;23.29;40.15;97948.53;1710904;83;21210;-73
2022/09/16 12:04:27;;;;;;;5.30;2.15;;;;;;;23.09;40.18;97952.02;1707745;83;21009;-72
2022/09/16 12:07:12;;;;;;;2.80;1.60;;;;;;;22.92;40.96;97956.52;1705124;83;21622;-75
2022/09/16 12:09:47;;;;;;;3.08;1.35;;;;;;;22.69;41.66;97963.52;1705950;83;21464;-72
2022/09/16 12:12:18;;;;;;;4.92;1.27;;;;;;;22.52;42.23;97966.34;1708544;83;21025;-73
2022/09/16 12:14:59;;;;;;;4.50;1.10;;;;;;;22.38;43.04;97961.30;1704592;83;21153;-72